Time;durP1;ratioP1;P1;durP2;ratioP2;P2;SDS_P1;SDS_P2;PMS_P1;PMS_P2;Temp;Humidity;BMP_temperature;BMP_pressure;BME280_temperature;BME280_humidity;BME280_pressure;Samples;Min_cycle;Max_cycle;Signal;HPM_P1;HPM_P2
2021/12/25 00:02:17;;;;;;;1.35;1.00;;;0.70;92.10;;;;;;5135207;27;20596;-64
2021/12/25 00:04:44;;;;;;;1.77;1.00;;;0.70;92.20;;;;;;5136146;27;20292;-63
2021/12/25 00:07:11;;;;;;;2.05;0.82;;;0.60;92.30;;;;;;5133840;27;20567;-63
2021/12/25 00:09:37;;;;;;;1.30;1.00;;;0.60;92.20;;;;;;5125048;27;20243;-63
2021/12/25 00:12:05;;;;;;;1.05;0.90;;;0.60;92.40;;;;;;5134022;27;20643;-64
2021/12/25 00:14:34;;;;;;;1.35;1.23;;;0.60;92.50;;;;;;5134853;27;20221;-63
2021/12/25 00:17:02;;;;;;;2.08;1.00;;;0.60;92.50;;;;;;5133684;27;20228;-64
2021/12/25 00:19:29;;;;;;;2.35;1.30;;;0.60;92.40;;;;;;5134872;27;20319;-63
2021/12/25 00:21:56;;;;;;;2.30;1.25;;;0.60;92.50;;;;;;5132274;27;20223;-63
2021/12/25 00:24:23;;;;;;;1.50;1.20;;;0.70;92.40;;;;;;5129931;27;20543;-63
2021/12/25 00:26:56;;;;;;;1.23;0.90;;;0.60;92.40;;;;;;5133121;27;20228;-63
2021/12/25 00:29:52;;;;;;;2.42;1.25;;;0.60;92.40;;;;;;5134059;27;20558;-62
2021/12/25 00:32:46;;;;;;;1.25;1.15;;;0.70;92.50;;;;;;5129340;27;20258;-62
2021/12/25 00:35:13;;;;;;;2.17;1.35;;;0.70;92.60;;;;;;5129031;27;20645;-64
2021/12/25 00:37:40;;;;;;;1.25;1.15;;;0.70;92.60;;;;;;5130220;27;20233;-62
2021/12/25 00:40:07;;;;;;;1.90;1.63;;;0.70;92.20;;;;;;5133347;27;20239;-63
2021/12/25 00:42:34;;;;;;;1.52;1.05;;;0.70;92.10;;;;;;5134191;27;20659;-63
2021/12/25 00:45:01;;;;;;;1.25;1.10;;;0.70;92.30;;;;;;5134376;27;20300;-63
2021/12/25 00:47:29;;;;;;;3.15;1.10;;;0.70;92.20;;;;;;5133824;27;20561;-63
2021/12/25 00:49:56;;;;;;;2.05;1.23;;;0.70;92.10;;;;;;5134521;27;20593;-63
2021/12/25 00:52:23;;;;;;;2.25;1.10;;;0.60;91.90;;;;;;5121414;27;20237;-63
2021/12/25 00:54:50;;;;;;;1.50;1.40;;;0.60;92.10;;;;;;5134512;27;20231;-64
2021/12/25 00:57:17;;;;;;;1.58;1.48;;;0.60;92.30;;;;;;5130174;27;20225;-63
2021/12/25 00:59:44;;;;;;;3.05;1.88;;;0.60;92.30;;;;;;5133696;27;20232;-63
2021/12/25 01:02:11;;;;;;;2.00;1.58;;;0.60;92.30;;;;;;5133784;27;20229;-63
2021/12/25 01:04:39;;;;;;;3.20;1.55;;;0.60;92.60;;;;;;5133810;27;20223;-63
2021/12/25 01:07:06;;;;;;;2.10;1.30;;;0.60;92.50;;;;;;5132929;27;20253;-62
2021/12/25 01:09:33;;;;;;;1.95;1.23;;;0.60;92.50;;;;;;5134228;27;20306;-63
2021/12/25 01:12:00;;;;;;;1.85;1.50;;;0.60;92.60;;;;;;5132596;27;20252;-63
2021/12/25 01:14:33;;;;;;;2.00;1.55;;;0.50;92.70;;;;;;5133734;27;20221;-64
2021/12/25 01:17:21;;;;;;;2.35;1.50;;;0.60;92.80;;;;;;5129728;27;20296;-63
2021/12/25 01:31:08;;;;;;;4.75;1.70;;;0.60;93.00;;;;;;5131705;27;20224;-64
2021/12/25 01:36:59;;;;;;;2.58;1.52;;;0.60;93.00;;;;;;5089787;28;20225;-62
2021/12/25 01:39:42;;;;;;;1.50;1.40;;;0.60;92.90;;;;;;5130327;27;20626;-62
2021/12/25 01:47:49;;;;;;;3.20;1.45;;;0.50;93.00;;;;;;5133214;27;20569;-62
2021/12/25 01:50:18;;;;;;;5.93;1.38;;;0.40;93.10;;;;;;5124329;27;20224;-63
2021/12/25 01:52:46;;;;;;;1.20;1.10;;;0.40;93.20;;;;;;5132453;27;20684;-63
2021/12/25 01:55:16;;;;;;;1.80;1.15;;;0.40;93.00;;;;;;5133032;27;20692;-63
2021/12/25 01:57:43;;;;;;;1.15;1.00;;;0.40;93.00;;;;;;5131556;27;20216;-63
2021/12/25 02:00:15;;;;;;;1.25;1.15;;;0.40;92.70;;;;;;5121785;27;20224;-62
2021/12/25 02:02:42;;;;;;;1.70;0.90;;;0.40;92.70;;;;;;5132734;27;20233;-62
2021/12/25 02:05:09;;;;;;;2.88;1.42;;;0.40;92.90;;;;;;5133029;27;20534;-62
2021/12/25 02:07:36;;;;;;;4.50;1.80;;;0.30;92.90;;;;;;5132341;27;20543;-63
2021/12/25 02:10:05;;;;;;;2.53;1.88;;;0.30;93.20;;;;;;5133263;27;20224;-63
2021/12/25 02:12:33;;;;;;;2.40;1.50;;;0.30;93.50;;;;;;5132991;27;20568;-63
2021/12/25 02:15:06;;;;;;;3.00;1.10;;;0.30;93.00;;;;;;5132871;27;20234;-63
2021/12/25 02:17:50;;;;;;;3.13;1.42;;;0.30;92.90;;;;;;5132895;27;20216;-63
2021/12/25 02:20:25;;;;;;;3.50;1.55;;;0.30;92.70;;;;;;5132649;27;20719;-62
2021/12/25 02:22:59;;;;;;;1.35;1.10;;;0.30;93.10;;;;;;5123198;27;20286;-63
2021/12/25 02:25:26;;;;;;;2.20;1.40;;;0.30;93.30;;;;;;5132453;27;20219;-63
2021/12/25 02:27:53;;;;;;;1.83;1.40;;;0.30;93.00;;;;;;5132947;27;20254;-63
2021/12/25 02:30:20;;;;;;;1.27;1.08;;;0.30;93.00;;;;;;5131507;27;20229;-63
2021/12/25 02:32:47;;;;;;;2.45;1.48;;;0.30;92.90;;;;;;5133033;27;20240;-63
2021/12/25 02:35:16;;;;;;;1.73;1.20;;;0.40;92.90;;;;;;5132621;27;20222;-63
2021/12/25 02:37:45;;;;;;;3.83;1.73;;;0.40;92.90;;;;;;5131986;27;20222;-63
2021/12/25 02:40:14;;;;;;;4.68;1.83;;;0.30;92.70;;;;;;5133190;27;20225;-63
2021/12/25 02:42:41;;;;;;;2.17;1.35;;;0.30;92.90;;;;;;5132209;27;20235;-64
2021/12/25 02:45:15;;;;;;;14.40;12.90;;;0.30;92.80;;;;;;5133249;27;20522;-64
2021/12/25 02:47:43;;;;;;;9.45;8.65;;;0.30;92.80;;;;;;5132140;27;20228;-62
2021/12/25 02:50:12;;;;;;;7.50;6.22;;;0.30;92.50;;;;;;5125798;27;20311;-62
2021/12/25 02:52:39;;;;;;;6.40;5.90;;;0.30;92.60;;;;;;5136300;27;20222;-63
2021/12/25 02:55:08;;;;;;;6.75;6.05;;;0.30;92.70;;;;;;5137102;27;20216;-63
2021/12/25 02:57:35;;;;;;;5.55;5.05;;;0.20;92.70;;;;;;5136122;27;20600;-63
2021/12/25 03:00:02;;;;;;;6.80;6.25;;;0.20;92.80;;;;;;5136847;27;20254;-63
2021/12/25 03:02:28;;;;;;;4.95;4.00;;;0.30;92.70;;;;;;5135474;27;20316;-62
2021/12/25 03:04:55;;;;;;;3.70;3.42;;;0.20;92.50;;;;;;5136688;27;20321;-63
2021/12/25 03:07:22;;;;;;;2.92;2.72;;;0.30;92.70;;;;;;5135664;27;20252;-62
2021/12/25 03:09:49;;;;;;;3.45;3.25;;;0.20;92.60;;;;;;5136398;27;20242;-63
2021/12/25 03:12:27;;;;;;;2.85;2.30;;;0.20;92.70;;;;;;5136075;27;20546;-63
2021/12/25 03:15:07;;;;;;;2.13;1.92;;;0.20;92.70;;;;;;5136406;27;20944;-63
2021/12/25 03:17:35;;;;;;;2.78;1.75;;;0.20;92.70;;;;;;5134206;27;20302;-63
2021/12/25 03:20:02;;;;;;;2.17;1.98;;;0.20;92.80;;;;;;5136453;27;20567;-62
2021/12/25 03:22:29;;;;;;;2.03;1.58;;;0.20;92.90;;;;;;5129794;27;20248;-63
2021/12/25 03:24:56;;;;;;;2.45;2.25;;;0.20;92.80;;;;;;5131575;27;21222;-63
2021/12/25 03:27:25;;;;;;;8.27;5.22;;;0.20;92.80;;;;;;5136145;27;20300;-63
2021/12/25 03:29:52;;;;;;;6.85;4.80;;;0.10;92.80;;;;;;5133179;27;20232;-63
2021/12/25 03:32:19;;;;;;;1.88;1.77;;;0.20;92.90;;;;;;5136246;27;20227;-62
2021/12/25 03:34:46;;;;;;;2.25;1.70;;;0.20;92.90;;;;;;5135491;27;20577;-63
2021/12/25 03:37:12;;;;;;;2.92;2.00;;;0.20;93.00;;;;;;5134271;27;20219;-62
2021/12/25 03:39:39;;;;;;;2.35;1.98;;;0.10;92.90;;;;;;5126497;27;20239;-63
2021/12/25 03:42:07;;;;;;;2.63;2.05;;;0.10;92.90;;;;;;5135907;27;20220;-63
2021/12/25 03:44:35;;;;;;;3.33;2.60;;;0.10;93.20;;;;;;5135022;27;20614;-63
2021/12/25 03:47:11;;;;;;;3.33;2.97;;;0.00;93.30;;;;;;5135384;27;20225;-63
2021/12/25 03:53:08;;;;;;;5.13;2.53;;;0.00;93.00;;;;;;5135300;27;20224;-63
2021/12/25 03:58:06;;;;;;;1.58;1.10;;;0.00;93.30;;;;;;5131368;27;20248;-63
2021/12/25 04:00:36;;;;;;;4.55;1.60;;;0.10;93.00;;;;;;5135100;27;20678;-64
2021/12/25 04:03:07;;;;;;;2.75;1.23;;;0.10;93.00;;;;;;5135169;27;20616;-61
2021/12/25 04:05:37;;;;;;;3.03;1.55;;;0.00;93.00;;;;;;5133782;27;20323;-63
2021/12/25 04:08:07;;;;;;;1.85;1.38;;;0.10;92.50;;;;;;5132735;27;20220;-63
2021/12/25 04:10:36;;;;;;;2.90;1.50;;;0.10;92.70;;;;;;5135280;27;20224;-63
2021/12/25 04:13:05;;;;;;;2.80;1.52;;;0.10;92.70;;;;;;5134690;27;20228;-63
2021/12/25 04:15:35;;;;;;;2.10;1.90;;;0.10;92.90;;;;;;5135408;27;20224;-63
2021/12/25 04:18:03;;;;;;;2.75;2.05;;;0.10;93.00;;;;;;5133964;27;20224;-63
2021/12/25 04:20:30;;;;;;;2.08;1.80;;;0.10;93.10;;;;;;5129308;27;20225;-63
2021/12/25 04:23:02;;;;;;;3.78;2.22;;;0.00;93.20;;;;;;5131801;27;20221;-64
2021/12/25 04:25:31;;;;;;;2.38;1.35;;;0.10;93.30;;;;;;5134755;27;20221;-64
2021/12/25 04:28:04;;;;;;;4.05;2.67;;;0.00;93.20;;;;;;5134530;27;20286;-64
2021/12/25 04:30:40;;;;;;;3.20;1.50;;;0.10;93.30;;;;;;5127949;27;20839;-64
2021/12/25 05:03:34;;;;;;;2.10;1.67;;;-0.10;94.10;;;;;;5134139;27;20283;-63
2021/12/25 05:06:02;;;;;;;1.42;1.33;;;-0.10;94.10;;;;;;5133342;27;20304;-63
2021/12/25 05:08:29;;;;;;;1.92;1.40;;;-0.10;94.00;;;;;;5134158;27;20571;-63
2021/12/25 05:10:57;;;;;;;2.45;1.90;;;-0.10;94.00;;;;;;5133613;27;20240;-63
2021/12/25 05:13:24;;;;;;;1.40;1.30;;;-0.10;94.20;;;;;;5133505;27;20229;-63
2021/12/25 05:15:51;;;;;;;4.80;1.50;;;-0.10;94.20;;;;;;5134299;27;20278;-63
2021/12/25 05:18:18;;;;;;;1.35;1.25;;;-0.10;94.20;;;;;;5133937;27;20235;-63
2021/12/25 05:20:45;;;;;;;2.60;2.40;;;-0.10;94.10;;;;;;5134154;27;20229;-64
2021/12/25 05:23:13;;;;;;;1.65;1.20;;;-0.10;94.10;;;;;;5130628;27;20218;-64
2021/12/25 05:25:40;;;;;;;2.15;1.67;;;-0.10;94.00;;;;;;5134161;27;20549;-63
2021/12/25 05:28:08;;;;;;;2.17;1.48;;;-0.10;94.00;;;;;;5133691;27;20224;-64
2021/12/25 05:30:35;;;;;;;1.85;1.40;;;-0.10;94.20;;;;;;5126650;27;20224;-63
2021/12/25 05:33:01;;;;;;;1.48;1.35;;;-0.10;94.20;;;;;;5133436;27;20229;-62
2021/12/25 05:35:28;;;;;;;1.65;1.40;;;-0.10;94.30;;;;;;5134056;27;20242;-64
2021/12/25 05:37:59;;;;;;;1.98;1.75;;;-0.10;94.20;;;;;;5133723;27;20308;-64
2021/12/25 05:40:27;;;;;;;1.35;1.17;;;-0.10;94.30;;;;;;5133493;27;21001;-62
2021/12/25 05:42:54;;;;;;;3.15;1.00;;;-0.20;94.00;;;;;;5133871;27;20230;-63
2021/12/25 05:45:20;;;;;;;2.65;1.45;;;-0.20;94.10;;;;;;5133409;27;20250;-63
2021/12/25 05:47:47;;;;;;;2.42;1.70;;;-0.10;94.00;;;;;;5133576;27;20681;-63
2021/12/25 05:50:14;;;;;;;3.50;1.60;;;-0.10;93.90;;;;;;5133307;27;20704;-63
2021/12/25 05:52:41;;;;;;;1.80;1.17;;;-0.20;94.00;;;;;;5133599;27;20245;-63
2021/12/25 05:55:09;;;;;;;1.40;1.27;;;-0.20;94.00;;;;;;5132676;27;20232;-63
2021/12/25 05:57:37;;;;;;;5.43;2.33;;;-0.20;94.20;;;;;;5133716;27;20553;-62
2021/12/25 06:00:06;;;;;;;1.60;1.50;;;-0.30;94.30;;;;;;5133037;27;20235;-63
2021/12/25 06:02:33;;;;;;;1.80;1.50;;;-0.30;94.10;;;;;;5133513;27;20223;-63
2021/12/25 06:05:03;;;;;;;1.85;1.10;;;-0.30;94.40;;;;;;5133417;27;20224;-63
2021/12/25 06:07:30;;;;;;;2.17;1.23;;;-0.30;94.20;;;;;;5132834;27;20247;-63
2021/12/25 06:09:57;;;;;;;1.55;1.45;;;-0.30;94.20;;;;;;5133511;27;20682;-63
2021/12/25 06:12:24;;;;;;;2.28;1.83;;;-0.30;94.30;;;;;;5132995;27;20676;-63
2021/12/25 06:14:54;;;;;;;3.85;3.50;;;-0.30;94.30;;;;;;5133381;27;20717;-63
2021/12/25 06:17:21;;;;;;;2.72;1.42;;;-0.30;94.20;;;;;;5119442;27;20280;-63
2021/12/25 06:19:48;;;;;;;2.80;1.30;;;-0.30;94.30;;;;;;5133397;27;20248;-63
2021/12/25 06:22:14;;;;;;;3.70;1.55;;;-0.30;94.20;;;;;;5128243;27;20659;-63
2021/12/25 06:24:43;;;;;;;2.72;2.05;;;-0.40;94.20;;;;;;5130979;27;20219;-63
2021/12/25 06:27:10;;;;;;;1.60;1.50;;;-0.40;94.20;;;;;;5137391;27;20307;-63
2021/12/25 06:29:37;;;;;;;1.50;1.10;;;-0.40;94.30;;;;;;5135670;27;20239;-64
2021/12/25 06:32:06;;;;;;;1.90;1.75;;;-0.40;94.50;;;;;;5137283;27;20223;-63
2021/12/25 06:34:33;;;;;;;2.08;1.40;;;-0.40;94.40;;;;;;5137320;27;20232;-63
2021/12/25 06:37:00;;;;;;;1.30;1.20;;;-0.40;94.40;;;;;;5137457;27;20555;-63
2021/12/25 06:39:26;;;;;;;2.75;1.45;;;-0.40;94.30;;;;;;5131736;27;20221;-63
2021/12/25 06:41:53;;;;;;;2.58;1.42;;;-0.40;94.30;;;;;;5137287;27;20233;-63
2021/12/25 06:44:23;;;;;;;1.70;1.50;;;-0.40;94.00;;;;;;5136816;27;20231;-63
2021/12/25 06:46:50;;;;;;;1.75;1.40;;;-0.40;94.00;;;;;;5137413;27;20694;-64
2021/12/25 06:49:18;;;;;;;2.58;1.80;;;-0.40;94.00;;;;;;5136587;27;20345;-64
2021/12/25 06:51:45;;;;;;;4.50;1.80;;;-0.40;93.90;;;;;;5137067;27;20231;-63
2021/12/25 06:54:12;;;;;;;3.25;2.00;;;-0.40;94.10;;;;;;5136526;27;20233;-63
2021/12/25 06:56:39;;;;;;;3.72;1.58;;;-0.40;94.00;;;;;;5137257;27;20693;-63
2021/12/25 06:59:06;;;;;;;2.28;1.80;;;-0.40;94.00;;;;;;5133758;27;20571;-64
2021/12/25 07:01:33;;;;;;;3.40;1.90;;;-0.40;94.10;;;;;;5136631;27;20220;-65
2021/12/25 07:04:00;;;;;;;3.75;2.30;;;-0.40;94.20;;;;;;5136752;27;20278;-63
2021/12/25 07:06:28;;;;;;;4.75;2.72;;;-0.30;94.10;;;;;;5136275;27;20237;-63
2021/12/25 07:08:55;;;;;;;4.53;2.78;;;-0.40;94.10;;;;;;5136747;27;20705;-64
2021/12/25 07:11:22;;;;;;;3.28;2.22;;;-0.40;94.20;;;;;;5135682;27;20234;-64
2021/12/25 07:13:51;;;;;;;5.50;2.90;;;-0.30;94.30;;;;;;5136599;27;20240;-64
2021/12/25 07:16:18;;;;;;;4.53;2.08;;;-0.30;94.40;;;;;;5136463;27;20221;-64
2021/12/25 07:18:46;;;;;;;2.72;2.25;;;-0.30;94.50;;;;;;5136499;27;20234;-64
2021/12/25 07:21:15;;;;;;;2.53;2.10;;;-0.30;94.40;;;;;;5136152;27;20232;-64
2021/12/25 07:23:43;;;;;;;2.72;2.10;;;-0.30;94.40;;;;;;5125377;27;20225;-64
2021/12/25 07:26:10;;;;;;;4.22;2.55;;;-0.20;94.40;;;;;;5136510;27;20224;-64
2021/12/25 07:28:38;;;;;;;5.40;3.13;;;-0.30;94.50;;;;;;5135915;27;20217;-64
2021/12/25 07:31:06;;;;;;;3.65;2.80;;;-0.30;94.50;;;;;;5134520;27;20230;-63
2021/12/25 07:33:35;;;;;;;4.47;2.97;;;-0.20;94.50;;;;;;5135811;27;20226;-63
2021/12/25 07:36:01;;;;;;;4.95;2.88;;;-0.20;94.30;;;;;;5135537;27;20250;-63
2021/12/25 07:38:28;;;;;;;2.35;1.67;;;-0.20;94.30;;;;;;5131329;27;20607;-63
2021/12/25 07:40:56;;;;;;;2.00;1.70;;;-0.20;94.40;;;;;;5135926;27;20226;-64
2021/12/25 07:43:23;;;;;;;1.80;1.60;;;-0.20;94.40;;;;;;5135718;27;20747;-64
2021/12/25 07:45:52;;;;;;;1.50;1.40;;;-0.30;94.20;;;;;;5136181;27;20225;-64
2021/12/25 07:48:21;;;;;;;4.03;2.20;;;-0.30;94.30;;;;;;5135607;27;20224;-64
2021/12/25 07:50:49;;;;;;;2.58;1.98;;;-0.40;94.20;;;;;;5135985;27;20571;-64
2021/12/25 07:53:17;;;;;;;3.40;2.03;;;-0.40;94.40;;;;;;5135599;27;20244;-64
2021/12/25 07:55:44;;;;;;;2.30;2.10;;;-0.40;94.40;;;;;;5135811;27;20309;-64
2021/12/25 07:58:12;;;;;;;3.83;1.85;;;-0.40;94.40;;;;;;5133335;27;20253;-64
2021/12/25 08:00:39;;;;;;;2.17;1.98;;;-0.40;94.40;;;;;;5135192;27;20232;-64
2021/12/25 08:03:06;;;;;;;3.63;2.72;;;-0.40;94.40;;;;;;5135818;27;20221;-64
2021/12/25 08:05:33;;;;;;;5.18;3.08;;;-0.30;94.50;;;;;;5134741;27;20703;-64
2021/12/25 08:08:00;;;;;;;4.00;3.55;;;-0.30;94.50;;;;;;5135604;27;20219;-64
2021/12/25 08:10:27;;;;;;;4.45;3.40;;;-0.30;94.10;;;;;;5134574;27;20586;-64
2021/12/25 08:12:57;;;;;;;4.88;3.65;;;-0.20;94.00;;;;;;5135485;27;20229;-64
2021/12/25 08:15:27;;;;;;;4.93;2.88;;;-0.30;94.00;;;;;;5133942;27;20222;-64
2021/12/25 08:17:55;;;;;;;2.92;2.35;;;-0.30;94.10;;;;;;5124893;27;20387;-64
2021/12/25 08:20:22;;;;;;;4.30;2.47;;;-0.30;94.00;;;;;;5143308;27;20274;-64
2021/12/25 08:22:49;;;;;;;3.33;2.40;;;-0.30;94.00;;;;;;5125555;27;20222;-64
2021/12/25 08:25:17;;;;;;;4.20;2.53;;;-0.30;94.10;;;;;;5133291;27;20245;-64
2021/12/25 08:27:47;;;;;;;3.17;2.03;;;-0.30;93.90;;;;;;5134657;27;20971;-64
2021/12/25 08:30:15;;;;;;;3.58;2.45;;;-0.30;93.60;;;;;;5132701;27;20229;-64
2021/12/25 08:32:57;;;;;;;2.67;2.38;;;-0.20;93.70;;;;;;5133457;27;20691;-64
2021/12/25 08:35:25;;;;;;;3.67;2.67;;;-0.20;93.80;;;;;;5122042;27;20223;-64
2021/12/25 08:37:52;;;;;;;6.72;3.80;;;-0.20;94.00;;;;;;5129779;27;20551;-64
2021/12/25 08:40:19;;;;;;;4.22;3.20;;;-0.20;94.10;;;;;;5135028;27;20234;-64
2021/12/25 08:42:51;;;;;;;4.13;2.92;;;-0.20;93.90;;;;;;5134749;27;21017;-64
2021/12/25 08:45:40;;;;;;;6.90;3.13;;;-0.20;94.00;;;;;;5134751;27;20220;-63
2021/12/25 08:48:12;;;;;;;3.72;2.80;;;-0.20;94.00;;;;;;5133556;27;20230;-64
2021/12/25 08:50:39;;;;;;;3.10;2.90;;;-0.20;93.90;;;;;;5134845;27;20239;-64
2021/12/25 08:53:06;;;;;;;5.85;2.70;;;-0.20;94.10;;;;;;5133956;27;20253;-64
2021/12/25 08:55:33;;;;;;;4.80;2.83;;;-0.20;94.20;;;;;;5134649;27;20230;-64
2021/12/25 08:58:00;;;;;;;5.50;3.60;;;-0.20;94.20;;;;;;5124343;27;20226;-64
2021/12/25 09:00:30;;;;;;;8.60;3.90;;;-0.20;94.10;;;;;;5134236;27;20225;-64
2021/12/25 09:02:56;;;;;;;5.18;3.20;;;-0.20;94.10;;;;;;5121239;27;20303;-63
2021/12/25 09:05:25;;;;;;;4.45;3.03;;;-0.20;93.80;;;;;;5133718;27;20233;-64
2021/12/25 09:07:52;;;;;;;4.90;3.10;;;-0.20;94.00;;;;;;5134186;27;20237;-64
2021/12/25 09:10:19;;;;;;;6.40;3.85;;;-0.20;94.10;;;;;;5133789;27;20238;-64
2021/12/25 09:12:46;;;;;;;4.25;2.97;;;-0.10;94.30;;;;;;5134495;27;20228;-63
2021/12/25 09:15:13;;;;;;;3.63;3.33;;;-0.10;94.30;;;;;;5133778;27;20737;-63
2021/12/25 09:17:42;;;;;;;7.43;3.45;;;-0.10;94.40;;;;;;5134534;27;20563;-63
2021/12/25 09:20:10;;;;;;;5.25;2.88;;;0.00;93.70;;;;;;5133639;27;20224;-63
2021/12/25 09:22:38;;;;;;;3.70;2.75;;;0.00;93.60;;;;;;5126436;27;20239;-64
2021/12/25 09:25:06;;;;;;;3.85;2.90;;;0.00;93.70;;;;;;5131264;27;20226;-63
2021/12/25 09:27:33;;;;;;;3.55;3.25;;;0.00;93.70;;;;;;5134228;27;20300;-64
2021/12/25 09:30:00;;;;;;;4.55;3.25;;;0.10;93.70;;;;;;5133101;27;20223;-64
2021/12/25 09:32:27;;;;;;;3.55;2.53;;;0.10;93.80;;;;;;5133718;27;20242;-64
2021/12/25 09:34:54;;;;;;;6.07;4.10;;;0.10;94.00;;;;;;5133870;27;20224;-64
2021/12/25 09:37:21;;;;;;;5.38;3.72;;;0.10;94.00;;;;;;5133275;27;20226;-64
2021/12/25 09:39:49;;;;;;;7.43;3.83;;;0.10;94.30;;;;;;5133886;27;20233;-64
2021/12/25 09:42:16;;;;;;;7.57;4.28;;;0.20;94.30;;;;;;5133498;27;20224;-64
2021/12/25 09:44:43;;;;;;;5.13;3.92;;;0.20;94.30;;;;;;5133672;27;20226;-64
2021/12/25 09:47:10;;;;;;;4.68;3.67;;;0.20;94.40;;;;;;5133653;27;20234;-64
2021/12/25 09:49:37;;;;;;;5.93;3.78;;;0.30;94.50;;;;;;5133542;27;20279;-64
2021/12/25 09:52:05;;;;;;;3.70;3.03;;;0.30;94.50;;;;;;5133746;27;20220;-65
2021/12/25 09:54:32;;;;;;;6.43;3.33;;;0.40;94.50;;;;;;5133081;27;20219;-65
2021/12/25 09:57:00;;;;;;;4.63;4.00;;;0.40;94.50;;;;;;5133546;27;20724;-63
2021/12/25 09:59:27;;;;;;;4.47;3.55;;;0.40;94.40;;;;;;5132661;27;20242;-64
2021/12/25 10:01:57;;;;;;;5.30;4.85;;;0.50;94.30;;;;;;5133810;27;20221;-63
2021/12/25 10:04:33;;;;;;;5.13;3.75;;;0.50;94.20;;;;;;5122759;27;20293;-64
2021/12/25 10:07:17;;;;;;;4.90;3.80;;;0.50;94.10;;;;;;5133339;27;20224;-64
2021/12/25 10:09:58;;;;;;;4.00;3.60;;;0.60;94.20;;;;;;5133961;27;20235;-63
2021/12/25 10:12:31;;;;;;;7.65;4.07;;;0.60;94.00;;;;;;5133660;27;20215;-63
2021/12/25 10:14:59;;;;;;;5.53;4.55;;;0.70;93.90;;;;;;5133323;27;20976;-63
2021/12/25 10:17:28;;;;;;;5.85;3.70;;;0.70;94.20;;;;;;5133318;27;20295;-64
2021/12/25 10:20:02;;;;;;;5.65;3.85;;;0.80;94.20;;;;;;5132822;27;20226;-64
2021/12/25 10:22:30;;;;;;;8.73;4.00;;;0.80;93.90;;;;;;5131440;27;20210;-64
2021/12/25 10:25:10;;;;;;;5.93;3.47;;;0.80;94.00;;;;;;5132957;27;20223;-64
2021/12/25 10:27:48;;;;;;;7.93;4.05;;;0.80;94.00;;;;;;5119316;27;20231;-64
2021/12/25 10:30:16;;;;;;;4.72;2.53;;;0.90;93.50;;;;;;5127007;27;20230;-64
2021/12/25 10:32:43;;;;;;;2.92;2.63;;;1.00;93.10;;;;;;5132854;27;20825;-64
2021/12/25 10:35:14;;;;;;;7.55;4.97;;;1.00;92.80;;;;;;5133230;27;20235;-64
2021/12/25 10:37:42;;;;;;;9.35;4.47;;;0.90;92.30;;;;;;5130983;27;20222;-64
2021/12/25 10:40:23;;;;;;;6.10;5.20;;;0.90;92.40;;;;;;5133027;27;20239;-64
2021/12/25 10:42:52;;;;;;;6.78;4.28;;;1.00;92.60;;;;;;5132791;27;20733;-63
2021/12/25 10:45:19;;;;;;;5.40;3.53;;;1.00;92.60;;;;;;5132676;27;20313;-64
2021/12/25 10:47:46;;;;;;;3.17;2.88;;;1.00;92.70;;;;;;5132589;27;20232;-64
2021/12/25 10:50:15;;;;;;;2.40;2.03;;;1.00;92.40;;;;;;5132966;27;20240;-64
2021/12/25 10:52:46;;;;;;;4.68;3.35;;;1.00;92.40;;;;;;5132610;27;20223;-64
2021/12/25 10:55:19;;;;;;;3.15;2.65;;;1.10;92.40;;;;;;5119740;27;20616;-64
2021/12/25 10:57:48;;;;;;;5.82;3.75;;;1.10;92.30;;;;;;5125194;27;20231;-64
2021/12/25 11:00:28;;;;;;;7.40;4.55;;;1.10;92.30;;;;;;5132945;27;20224;-64
2021/12/25 11:02:59;;;;;;;9.50;3.72;;;1.20;92.20;;;;;;5132550;27;20229;-63
2021/12/25 11:05:28;;;;;;;5.72;4.80;;;1.20;92.00;;;;;;5132611;27;20226;-64
2021/12/25 11:08:10;;;;;;;6.03;5.50;;;1.30;92.00;;;;;;5132252;27;20229;-63
2021/12/25 11:10:44;;;;;;;6.38;5.78;;;1.30;91.90;;;;;;5134986;27;20699;-64
2021/12/25 11:13:20;;;;;;;4.75;4.35;;;1.40;91.90;;;;;;5124234;27;20208;-63
2021/12/25 11:15:52;;;;;;;6.97;5.97;;;1.40;91.90;;;;;;5136210;27;20236;-64
2021/12/25 11:18:19;;;;;;;10.73;7.15;;;1.40;91.80;;;;;;5136706;27;20224;-63
2021/12/25 11:20:46;;;;;;;8.88;6.85;;;1.40;92.00;;;;;;5136177;27;20317;-63
2021/12/25 11:23:14;;;;;;;11.50;6.43;;;1.50;92.20;;;;;;5134556;27;20564;-64
2021/12/25 11:25:44;;;;;;;10.68;5.80;;;1.50;92.20;;;;;;5136327;27;20226;-62
2021/12/25 11:28:14;;;;;;;10.85;5.85;;;1.50;92.20;;;;;;5136186;27;20216;-63
2021/12/25 11:30:45;;;;;;;7.03;6.43;;;1.50;91.70;;;;;;5129775;27;20729;-63
2021/12/25 11:33:17;;;;;;;9.35;4.50;;;1.60;91.70;;;;;;5135707;27;20238;-63
2021/12/25 11:35:44;;;;;;;6.75;3.70;;;1.60;91.60;;;;;;5136190;27;20315;-64
2021/12/25 11:38:11;;;;;;;5.05;3.45;;;1.60;91.60;;;;;;5126127;27;20252;-63
2021/12/25 11:40:46;;;;;;;3.13;2.83;;;1.60;91.40;;;;;;5122588;27;20323;-64
2021/12/25 11:43:14;;;;;;;3.58;2.60;;;1.70;91.50;;;;;;5135378;27;20224;-64
2021/12/25 11:45:42;;;;;;;6.35;2.63;;;1.70;91.40;;;;;;5136195;27;20218;-63
2021/12/25 11:48:16;;;;;;;4.50;2.00;;;1.70;91.40;;;;;;5135318;27;20684;-64
2021/12/25 11:50:46;;;;;;;5.18;2.50;;;1.80;91.30;;;;;;5135876;27;20677;-64
2021/12/25 11:53:20;;;;;;;5.40;3.03;;;1.80;91.20;;;;;;5135482;27;20218;-64
2021/12/25 11:58:51;;;;;;;4.30;2.55;;;1.90;91.00;;;;;;5068677;28;20668;-64
2021/12/25 12:01:36;;;;;;;3.78;2.67;;;1.90;90.70;;;;;;5109244;27;20308;-64
2021/12/25 12:04:15;;;;;;;2.75;2.20;;;1.90;90.70;;;;;;5135569;27;20216;-64
2021/12/25 12:07:18;;;;;;;3.25;2.60;;;2.00;90.60;;;;;;5122246;27;20229;-64
2021/12/25 12:09:55;;;;;;;3.00;1.67;;;2.00;90.40;;;;;;5135145;27;20247;-64
2021/12/25 12:12:24;;;;;;;2.53;2.33;;;2.00;90.40;;;;;;5135530;27;20220;-63
2021/12/25 12:15:12;;;;;;;4.10;2.03;;;2.10;90.20;;;;;;5135051;27;20226;-63
2021/12/25 12:17:40;;;;;;;4.93;3.85;;;2.10;90.00;;;;;;5134917;27;20224;-64
2021/12/25 12:20:16;;;;;;;2.40;2.20;;;2.20;90.10;;;;;;5134301;27;20246;-64
2021/12/25 12:23:05;;;;;;;5.65;2.30;;;2.30;89.70;;;;;;5121004;27;20225;-65
2021/12/25 12:26:04;;;;;;;5.15;2.05;;;2.20;87.40;;;;;;5134772;27;20224;-63
2021/12/25 12:28:50;;;;;;;2.25;1.88;;;2.20;86.90;;;;;;5133313;27;20240;-64
2021/12/25 12:31:37;;;;;;;2.85;2.33;;;2.20;86.30;;;;;;5134856;27;20224;-64
2021/12/25 12:34:33;;;;;;;2.95;2.25;;;2.20;85.80;;;;;;5134808;27;20230;-63
2021/12/25 12:37:30;;;;;;;1.85;1.52;;;2.30;85.10;;;;;;5114706;27;20250;-63
2021/12/25 12:40:26;;;;;;;5.40;3.15;;;2.20;84.30;;;;;;5129507;27;20222;-64
2021/12/25 12:42:59;;;;;;;2.35;2.15;;;2.20;84.50;;;;;;5134746;27;20249;-65
2021/12/25 12:45:28;;;;;;;4.88;3.30;;;2.30;85.70;;;;;;5135053;27;20233;-64
2021/12/25 12:48:16;;;;;;;5.93;5.25;;;2.30;84.20;;;;;;5134645;27;20239;-64
2021/12/25 12:50:45;;;;;;;5.43;4.00;;;2.30;84.70;;;;;;5134987;27;20240;-64
2021/12/25 12:53:14;;;;;;;5.25;4.55;;;2.30;84.90;;;;;;5134751;27;20332;-64
2021/12/25 12:55:43;;;;;;;3.08;2.78;;;2.30;85.20;;;;;;5134916;27;20222;-64
2021/12/25 12:58:16;;;;;;;4.32;3.60;;;2.30;85.60;;;;;;5134320;27;20229;-63
2021/12/25 13:00:47;;;;;;;4.97;4.47;;;2.30;85.80;;;;;;5134921;27;20570;-64
2021/12/25 13:03:16;;;;;;;8.60;6.15;;;2.40;85.80;;;;;;5134355;27;20230;-64
2021/12/25 13:05:48;;;;;;;11.45;9.52;;;2.40;86.70;;;;;;5134225;27;20227;-64
2021/12/25 13:08:19;;;;;;;14.88;13.32;;;2.40;86.70;;;;;;5134242;27;20227;-63
2021/12/25 13:10:51;;;;;;;13.32;9.80;;;2.40;86.90;;;;;;5134514;27;20270;-64
2021/12/25 13:13:21;;;;;;;10.98;7.13;;;2.40;87.20;;;;;;5134381;27;20240;-64
2021/12/25 13:15:50;;;;;;;9.20;6.50;;;2.40;87.50;;;;;;5134367;27;20564;-63
2021/12/25 13:18:26;;;;;;;6.88;6.20;;;2.50;87.60;;;;;;5134151;27;20675;-63
2021/12/25 13:20:53;;;;;;;8.30;6.32;;;2.50;87.40;;;;;;5134436;27;20578;-63
2021/12/25 13:23:24;;;;;;;10.43;6.68;;;2.50;87.80;;;;;;5134040;27;20218;-63
2021/12/25 13:25:53;;;;;;;11.93;9.95;;;2.50;87.90;;;;;;5134323;27;20250;-64
2021/12/25 13:28:22;;;;;;;14.50;9.80;;;2.50;87.90;;;;;;5133945;27;20652;-64
2021/12/25 13:30:51;;;;;;;30.02;20.63;;;2.50;88.20;;;;;;5134026;27;20285;-63
2021/12/25 13:33:20;;;;;;;113.28;70.80;;;2.50;88.40;;;;;;5132853;27;20216;-63
2021/12/25 13:35:49;;;;;;;52.25;36.45;;;2.50;88.80;;;;;;5134209;27;20581;-63
2021/12/25 13:38:16;;;;;;;32.53;26.02;;;2.50;88.70;;;;;;5133549;27;20563;-64
2021/12/25 13:40:51;;;;;;;22.80;20.45;;;2.60;88.50;;;;;;5133965;27;20222;-63
2021/12/25 13:43:18;;;;;;;22.70;19.55;;;2.50;87.30;;;;;;5133591;27;20256;-63
2021/12/25 13:45:45;;;;;;;15.02;13.52;;;2.50;87.20;;;;;;5133919;27;20228;-64
2021/12/25 13:48:12;;;;;;;12.80;11.50;;;2.50;87.00;;;;;;5133304;27;20225;-64
2021/12/25 13:50:40;;;;;;;8.80;7.90;;;2.50;87.50;;;;;;5133973;27;20230;-64
2021/12/25 13:53:19;;;;;;;5.90;4.30;;;2.50;87.80;;;;;;5133437;27;20220;-64
2021/12/25 13:55:48;;;;;;;7.25;5.05;;;2.50;87.70;;;;;;5133803;27;20218;-65
2021/12/25 13:58:18;;;;;;;15.68;12.55;;;2.50;87.40;;;;;;5133585;27;20240;-63
2021/12/25 14:00:48;;;;;;;36.65;22.25;;;2.50;87.20;;;;;;5133802;27;20236;-64
2021/12/25 14:03:18;;;;;;;17.75;13.70;;;2.50;87.40;;;;;;5133414;27;20311;-64
2021/12/25 14:05:48;;;;;;;15.40;12.63;;;2.40;87.20;;;;;;5133319;27;20223;-64
2021/12/25 14:08:18;;;;;;;145.13;77.35;;;2.40;87.10;;;;;;5133266;27;20539;-64